Time;durP1;ratioP1;P1;durP2;ratioP2;P2;SDS_P1;SDS_P2;PMS_P1;PMS_P2;Temp;Humidity;BMP_temperature;BMP_pressure;BME280_temperature;BME280_humidity;BME280_pressure;Samples;Min_cycle;Max_cycle;Signal;HPM_P1;HPM_P2
2022/10/15 00:00:07;;;;;;;2.53;0.80;;;;;;;14.99;85.54;97610.03;7390374;19;20421;-74
2022/10/15 00:02:34;;;;;;;4.82;0.90;;;;;;;15.03;85.53;97612.06;7393640;19;20039;-74
2022/10/15 00:05:01;;;;;;;1.50;0.88;;;;;;;15.05;85.42;97617.19;7387856;19;20018;-74
2022/10/15 00:07:28;;;;;;;2.25;1.08;;;;;;;15.04;85.57;97615.56;7387191;19;20022;-74
2022/10/15 00:09:55;;;;;;;4.57;1.00;;;;;;;15.05;85.64;97617.19;7388533;19;20030;-74
2022/10/15 00:12:22;;;;;;;5.57;1.15;;;;;;;15.13;85.33;97617.81;7390996;19;20024;-74
2022/10/15 00:14:48;;;;;;;4.95;0.90;;;;;;;15.17;85.25;97614.78;7389043;19;20026;-73
2022/10/15 00:17:15;;;;;;;1.33;0.90;;;;;;;15.14;85.17;97610.66;7391455;19;20343;-74
2022/10/15 00:19:42;;;;;;;4.07;0.90;;;;;;;15.17;85.17;97612.09;7392570;19;20950;-74
2022/10/15 00:22:08;;;;;;;2.80;0.90;;;;;;;15.13;85.33;97607.16;7388180;19;20018;-73
2022/10/15 00:24:36;;;;;;;3.08;0.98;;;;;;;15.18;85.24;97613.72;7384612;19;20018;-74
2022/10/15 00:27:02;;;;;;;1.40;0.82;;;;;;;15.16;85.19;97611.25;7385041;19;20035;-73
2022/10/15 00:29:29;;;;;;;3.17;0.80;;;;;;;15.13;85.53;97601.84;7389362;19;20025;-73
2022/10/15 00:31:56;;;;;;;4.97;0.93;;;;;;;15.09;85.61;97605.13;7391765;19;20014;-74
2022/10/15 00:34:23;;;;;;;8.73;1.20;;;;;;;15.14;85.41;97597.34;7389852;19;20478;-74
2022/10/15 00:36:50;;;;;;;3.55;0.90;;;;;;;15.17;85.51;97601.44;7389945;19;20015;-74
2022/10/15 00:39:16;;;;;;;4.05;0.75;;;;;;;15.13;85.63;97598.34;7389424;19;20031;-74
2022/10/15 00:41:44;;;;;;;1.70;0.93;;;;;;;15.08;85.68;97598.94;7384860;19;20011;-73
2022/10/15 00:44:19;;;;;;;4.60;0.82;;;;;;;15.12;85.72;97602.06;7389231;19;20014;-74
2022/10/15 00:47:09;;;;;;;1.60;0.47;;;;;;;15.08;85.82;97593.63;7387264;19;20372;-73
2022/10/15 00:49:39;;;;;;;3.60;0.80;;;;;;;15.04;85.91;97591.59;7388851;19;20039;-74
2022/10/15 00:52:10;;;;;;;11.50;1.00;;;;;;;15.09;85.82;97595.28;7387275;19;20564;-73
2022/10/15 00:54:39;;;;;;;0.95;0.57;;;;;;;15.17;85.81;97588.13;7388807;19;20035;-73
2022/10/15 00:57:07;;;;;;;3.08;0.50;;;;;;;15.17;85.86;97588.13;7384221;19;20010;-74
2022/10/15 00:59:38;;;;;;;2.92;0.68;;;;;;;15.17;85.79;97582.78;7385233;19;20010;-74
2022/10/15 01:02:06;;;;;;;6.43;0.75;;;;;;;15.22;85.65;97578.50;7388926;19;20015;-74
2022/10/15 01:04:33;;;;;;;4.22;0.80;;;;;;;15.19;85.69;97578.06;7390304;19;20494;-74
2022/10/15 01:07:00;;;;;;;3.05;0.60;;;;;;;15.28;85.42;97582.19;7385987;19;20787;-73
2022/10/15 01:09:28;;;;;;;0.77;0.60;;;;;;;15.24;85.51;97580.94;7389219;19;20018;-74
2022/10/15 01:11:55;;;;;;;9.18;0.70;;;;;;;15.21;85.75;97568.84;7387182;19;20014;-73
2022/10/15 01:14:40;;;;;;;3.72;0.70;;;;;;;15.21;85.76;97566.19;7384513;19;20010;-73
2022/10/15 01:17:19;;;;;;;14.27;0.80;;;;;;;15.21;85.76;97568.84;7385124;19;20011;-73
2022/10/15 01:20:01;;;;;;;3.58;0.70;;;;;;;15.21;85.81;97566.19;7389904;19;20023;-73
2022/10/15 01:22:47;;;;;;;0.60;0.30;;;;;;;15.27;85.58;97568.03;7390872;19;20018;-74
2022/10/15 01:25:49;;;;;;;5.97;0.43;;;;;;;15.26;85.69;97566.38;7385255;19;20612;-73
2022/10/15 01:28:23;;;;;;;2.47;0.45;;;;;;;15.33;85.46;97566.41;7382036;19;20029;-74
2022/10/15 01:30:53;;;;;;;;;;;;;;;15.33;85.38;97559.22;7386137;19;20044;-74
2022/10/15 01:33:24;;;;;;;1.35;0.55;;;;;;;15.28;85.54;97555.53;7385933;19;19933;-74
2022/10/15 01:35:59;;;;;;;2.50;0.40;;;;;;;15.32;85.54;97557.59;7385823;19;20023;-74
2022/10/15 01:38:59;;;;;;;2.05;0.47;;;;;;;15.36;85.40;97556.13;7385344;19;20014;-74
2022/10/15 01:41:33;;;;;;;4.10;0.80;;;;;;;15.33;85.29;97561.06;7387606;19;20014;-74
2022/10/15 01:44:03;;;;;;;2.53;0.82;;;;;;;15.33;85.62;97556.53;7388206;19;20029;-74
2022/10/15 01:46:49;;;;;;;4.68;0.63;;;;;;;15.32;85.52;97549.59;7385513;19;20758;-74
2022/10/15 01:49:24;;;;;;;6.57;0.52;;;;;;;15.39;85.36;97552.22;7382378;19;20014;-74
2022/10/15 01:51:53;;;;;;;1.58;0.60;;;;;;;15.41;85.45;97546.72;7388368;19;20042;-73
2022/10/15 01:54:22;;;;;;;2.50;0.55;;;;;;;15.41;85.44;97547.53;7387107;19;20378;-74
2022/10/15 01:56:51;;;;;;;3.45;0.50;;;;;;;15.45;85.40;97543.41;7386575;19;20022;-74
2022/10/15 01:59:23;;;;;;;0.32;0.30;;;;;;;15.50;85.18;97548.94;7382514;19;20030;-74
2022/10/15 02:01:51;;;;;;;2.58;0.50;;;;;;;15.53;85.21;97529.88;7385306;19;20014;-74
2022/10/15 02:04:24;;;;;;;4.35;0.68;;;;;;;15.50;85.30;97550.78;7383502;19;22414;-74
2022/10/15 02:07:03;;;;;;;1.30;0.40;;;;;;;15.55;85.21;97540.31;7383132;19;20015;-74
2022/10/15 02:09:48;;;;;;;1.15;0.47;;;;;;;15.58;85.00;97532.72;7383126;19;20025;-74
2022/10/15 02:12:41;;;;;;;1.98;0.40;;;;;;;15.50;85.11;97526.78;7387672;19;20726;-74
2022/10/15 02:15:37;;;;;;;0.53;0.40;;;;;;;15.46;85.36;97542.41;7388280;19;20010;-74
2022/10/15 02:18:32;;;;;;;0.68;0.40;;;;;;;15.49;85.33;97546.50;7386248;19;20501;-74
2022/10/15 02:21:13;;;;;;;2.05;0.40;;;;;;;15.55;85.15;97550.97;7385399;19;20014;-73
2022/10/15 02:23:40;;;;;;;4.15;0.75;;;;;;;15.51;85.39;97545.25;7381816;19;20364;-73
2022/10/15 02:26:07;;;;;;;5.82;0.70;;;;;;;15.52;85.26;97540.75;7387794;19;20022;-74
2022/10/15 02:28:35;;;;;;;1.35;0.40;;;;;;;15.49;85.37;97541.16;7385169;19;20022;-74
2022/10/15 02:31:03;;;;;;;0.50;0.40;;;;;;;15.59;85.26;97549.56;7386985;19;20017;-74
2022/10/15 02:33:31;;;;;;;4.55;0.50;;;;;;;15.57;85.17;97551.59;7386130;19;20015;-74
2022/10/15 02:35:57;;;;;;;2.70;0.55;;;;;;;15.59;85.19;97557.56;7386453;19;20073;-73
2022/10/15 02:38:26;;;;;;;0.40;0.30;;;;;;;15.73;84.75;97550.38;7380398;19;20314;-73
2022/10/15 02:40:53;;;;;;;1.17;0.50;;;;;;;15.75;84.74;97554.47;7382064;19;20033;-74
2022/10/15 02:43:21;;;;;;;3.08;0.82;;;;;;;15.78;84.60;97556.72;7386185;19;20102;-74
2022/10/15 02:45:49;;;;;;;7.05;0.88;;;;;;;15.79;84.63;97558.34;7381228;19;20022;-73
2022/10/15 02:48:17;;;;;;;6.13;1.05;;;;;;;15.81;84.39;97566.16;7384529;19;20022;-73
2022/10/15 02:50:45;;;;;;;5.60;0.90;;;;;;;15.77;84.64;97559.56;7384066;19;20497;-73
2022/10/15 02:53:12;;;;;;;6.47;0.80;;;;;;;15.78;84.48;97559.38;7386976;19;20030;-74
2022/10/15 02:55:41;;;;;;;2.80;0.70;;;;;;;15.74;84.67;97554.66;7380393;19;20018;-73
2022/10/15 02:58:08;;;;;;;1.90;0.55;;;;;;;15.73;84.79;97563.72;7385729;19;20018;-74
2022/10/15 03:00:34;;;;;;;3.88;0.50;;;;;;;15.76;84.68;97563.28;7386497;19;20007;-73
2022/10/15 03:03:01;;;;;;;2.72;0.40;;;;;;;15.82;84.56;97566.97;7385284;19;20014;-73
2022/10/15 03:05:28;;;;;;;6.90;0.63;;;;;;;15.84;84.47;97565.72;7385778;19;20019;-73
2022/10/15 03:07:55;;;;;;;1.98;0.75;;;;;;;15.86;84.40;97565.53;7385160;19;20015;-73
2022/10/15 03:10:21;;;;;;;2.80;0.63;;;;;;;15.82;84.50;97566.97;7382774;19;20082;-74
2022/10/15 03:12:48;;;;;;;1.35;0.70;;;;;;;15.87;84.47;97567.16;7382622;19;20039;-74
2022/10/15 03:15:15;;;;;;;1.60;0.47;;;;;;;15.88;84.35;97568.81;7383601;19;20022;-73
2022/10/15 03:17:44;;;;;;;4.10;0.52;;;;;;;15.93;84.44;97568.97;7384915;19;20018;-73
2022/10/15 03:20:14;;;;;;;2.20;0.68;;;;;;;15.92;84.33;97564.69;7385596;19;20029;-73
2022/10/15 03:22:41;;;;;;;1.38;0.40;;;;;;;15.92;84.36;97568.16;7384498;19;20014;-74
2022/10/15 03:25:08;;;;;;;3.30;0.57;;;;;;;15.92;84.47;97562.00;7383474;19;20018;-73
2022/10/15 03:27:34;;;;;;;1.63;0.55;;;;;;;15.93;84.19;97571.66;7379115;19;20052;-73
2022/10/15 03:30:08;;;;;;;2.33;0.65;;;;;;;15.93;84.29;97561.81;7381131;19;20500;-73
2022/10/15 03:32:36;;;;;;;1.90;0.40;;;;;;;15.96;84.29;97560.56;7383188;19;20022;-73
2022/10/15 03:35:05;;;;;;;1.35;0.38;;;;;;;15.96;84.16;97574.72;7387784;19;20018;-73
2022/10/15 03:37:32;;;;;;;1.60;0.40;;;;;;;15.92;84.44;97562.81;7392370;19;20516;-73
2022/10/15 03:39:59;;;;;;;5.15;1.05;;;;;;;15.95;84.21;97572.25;7390924;19;20026;-73
2022/10/15 03:42:26;;;;;;;1.25;0.43;;;;;;;15.95;84.19;97573.06;7391628;19;20062;-73
2022/10/15 03:44:52;;;;;;;2.75;0.50;;;;;;;15.93;84.38;97575.16;7386470;19;20022;-73
2022/10/15 03:47:19;;;;;;;4.18;0.70;;;;;;;15.94;84.29;97575.97;7388700;19;20506;-73
2022/10/15 03:49:48;;;;;;;4.70;0.40;;;;;;;15.90;84.34;97578.22;7389579;19;20018;-73
2022/10/15 03:52:15;;;;;;;3.88;0.38;;;;;;;15.88;84.54;97572.28;7389703;19;20454;-74
2022/10/15 03:54:44;;;;;;;2.42;0.20;;;;;;;15.94;84.34;97578.63;7390500;19;20022;-74
2022/10/15 03:57:12;;;;;;;0.40;0.40;;;;;;;15.97;84.29;97584.38;7392868;19;20006;-74
2022/10/15 03:59:46;;;;;;;4.03;0.57;;;;;;;16.00;84.13;97588.47;7390253;19;20006;-74
2022/10/15 04:02:14;;;;;;;2.20;0.40;;;;;;;16.03;84.24;97593.38;7386561;19;20027;-73
2022/10/15 04:04:41;;;;;;;1.65;0.30;;;;;;;15.97;84.18;97597.69;7383730;19;20018;-74
2022/10/15 04:07:07;;;;;;;2.55;0.22;;;;;;;15.97;84.42;97596.88;7385863;19;20074;-74
2022/10/15 04:09:35;;;;;;;1.75;0.22;;;;;;;15.97;84.46;97602.22;7390533;19;20054;-73
2022/10/15 04:12:24;;;;;;;0.70;0.38;;;;;;;15.99;84.52;97610.84;7390145;19;20011;-74
2022/10/15 04:14:51;;;;;;;1.00;0.30;;;;;;;16.06;84.26;97598.31;7387460;19;20026;-74
2022/10/15 04:17:18;;;;;;;3.17;0.40;;;;;;;16.03;84.22;97596.03;7389430;19;20023;-74
2022/10/15 04:19:44;;;;;;;0.60;0.40;;;;;;;16.09;84.35;97592.56;7386677;19;20011;-72
2022/10/15 04:22:13;;;;;;;2.28;0.40;;;;;;;16.09;84.11;97600.56;7387887;19;20006;-73
2022/10/15 04:24:45;;;;;;;1.27;0.47;;;;;;;16.04;84.32;97604.88;7385959;19;20018;-74
2022/10/15 04:27:22;;;;;;;2.00;0.63;;;;;;;16.06;84.31;97605.47;7388147;19;20029;-73
2022/10/15 04:29:49;;;;;;;1.50;0.40;;;;;;;16.09;84.29;97610.38;7390739;19;20502;-73
2022/10/15 04:32:16;;;;;;;3.58;0.45;;;;;;;16.14;83.99;97615.91;7392828;19;20015;-74
2022/10/15 04:34:45;;;;;;;1.33;0.40;;;;;;;16.15;84.23;97612.25;7383180;19;20683;-73
2022/10/15 04:37:13;;;;;;;1.17;0.32;;;;;;;16.18;84.13;97615.28;7387253;19;20019;-74
2022/10/15 04:39:40;;;;;;;0.85;0.35;;;;;;;16.10;84.16;97612.03;7388411;19;20048;-74
2022/10/15 04:42:10;;;;;;;2.00;0.43;;;;;;;16.13;84.12;97615.09;7389615;19;20094;-73
2022/10/15 04:44:37;;;;;;;2.65;0.40;;;;;;;16.16;84.03;97617.34;7388075;19;20015;-74
2022/10/15 04:47:04;;;;;;;2.58;0.50;;;;;;;16.18;83.92;97620.63;7387972;19;20025;-74
2022/10/15 04:49:46;;;;;;;2.10;0.30;;;;;;;16.17;83.97;97620.84;7389177;19;20025;-74
2022/10/15 04:52:33;;;;;;;0.95;0.40;;;;;;;16.15;84.13;97618.38;7386842;19;20052;-73
2022/10/15 04:55:05;;;;;;;0.43;0.22;;;;;;;16.18;83.84;97617.16;7386633;19;20026;-74
2022/10/15 04:57:32;;;;;;;1.27;0.50;;;;;;;16.16;83.92;97619.19;7392291;19;20509;-73
2022/10/15 04:59:58;;;;;;;1.77;0.35;;;;;;;16.16;83.95;97621.88;7389414;19;20011;-73
2022/10/15 05:02:25;;;;;;;3.63;0.73;;;;;;;16.16;83.93;97629.88;7388770;19;20388;-73
2022/10/15 05:04:57;;;;;;;2.67;0.20;;;;;;;16.17;83.85;97634.19;7387039;19;20025;-74
2022/10/15 05:07:25;;;;;;;0.55;0.25;;;;;;;16.16;83.95;97638.69;7384614;19;20077;-74
2022/10/15 05:09:53;;;;;;;0.95;0.30;;;;;;;16.15;83.82;97634.41;7384993;19;20029;-74
2022/10/15 05:12:19;;;;;;;2.22;0.25;;;;;;;16.14;83.77;97630.09;7389771;19;20481;-74
2022/10/15 05:14:47;;;;;;;4.68;0.40;;;;;;;16.17;84.00;97627.00;7387486;19;20022;-74
2022/10/15 05:17:20;;;;;;;1.00;0.40;;;;;;;16.16;83.85;97636.03;7388703;19;20074;-73
2022/10/15 05:19:47;;;;;;;0.70;0.30;;;;;;;16.17;83.71;97650.22;7387737;19;20019;-74
2022/10/15 05:22:21;;;;;;;0.98;0.20;;;;;;;16.15;83.76;97652.25;7387401;19;20022;-74
2022/10/15 05:24:52;;;;;;;0.65;0.32;;;;;;;16.16;83.86;97652.03;7383127;19;20022;-74
2022/10/15 05:27:30;;;;;;;0.93;0.30;;;;;;;16.16;83.88;97659.22;7382957;19;20018;-74
2022/10/15 05:29:57;;;;;;;1.05;0.40;;;;;;;16.17;83.94;97653.69;7388900;19;20022;-74
2022/10/15 05:32:32;;;;;;;0.63;0.43;;;;;;;16.17;83.85;97661.69;7386940;19;20018;-74
2022/10/15 05:34:59;;;;;;;2.65;0.50;;;;;;;16.19;84.00;97666.81;7384596;19;20018;-74
2022/10/15 05:37:39;;;;;;;1.73;0.30;;;;;;;16.17;83.94;97675.03;7387641;19;20025;-74
2022/10/15 05:40:06;;;;;;;2.72;0.50;;;;;;;16.17;83.87;97679.56;7388507;19;20021;-74
2022/10/15 05:42:33;;;;;;;0.20;0.20;;;;;;;16.21;83.83;97686.94;7378648;19;20034;-74
2022/10/15 05:45:00;;;;;;;1.10;0.60;;;;;;;16.23;83.77;97678.72;7381962;19;20777;-74
2022/10/15 05:47:26;;;;;;;1.63;0.40;;;;;;;16.20;83.95;97677.28;7384891;19;20485;-74
2022/10/15 05:50:10;;;;;;;1.98;0.50;;;;;;;16.21;83.86;97678.09;7386274;19;20046;-74
2022/10/15 05:52:41;;;;;;;0.50;0.32;;;;;;;16.21;83.75;97683.44;7385973;19;21341;-74
2022/10/15 05:55:14;;;;;;;1.15;0.30;;;;;;;16.22;83.87;97688.59;7387170;19;20019;-74
2022/10/15 05:57:41;;;;;;;1.48;0.52;;;;;;;16.22;83.83;97688.59;7384789;19;20034;-74
2022/10/15 06:00:08;;;;;;;2.60;0.80;;;;;;;16.22;83.74;97680.56;7384767;19;20022;-74
2022/10/15 06:02:38;;;;;;;2.85;0.52;;;;;;;16.24;83.83;97691.03;7390072;19;20035;-74
2022/10/15 06:05:06;;;;;;;3.65;0.60;;;;;;;16.26;83.69;97691.66;7383062;19;20014;-74
2022/10/15 06:07:35;;;;;;;2.50;0.57;;;;;;;16.28;83.59;97705.59;7384276;19;20018;-74
2022/10/15 06:10:04;;;;;;;4.15;0.40;;;;;;;16.24;83.69;97715.91;7384695;19;20038;-74
2022/10/15 06:12:33;;;;;;;1.38;0.38;;;;;;;16.25;83.69;97708.69;7384641;19;20506;-74
2022/10/15 06:14:59;;;;;;;2.15;0.60;;;;;;;16.26;83.82;97713.00;7380933;19;20022;-74
2022/10/15 06:17:26;;;;;;;0.93;0.50;;;;;;;16.29;83.72;97714.44;7383430;19;20494;-74
2022/10/15 06:19:53;;;;;;;2.15;0.40;;;;;;;16.29;83.84;97715.25;7383685;19;20014;-74
2022/10/15 06:22:19;;;;;;;1.23;0.40;;;;;;;16.32;83.76;97724.69;7383624;19;20388;-74
2022/10/15 06:24:46;;;;;;;3.05;0.57;;;;;;;16.33;83.75;97729.00;7383209;19;21754;-74
2022/10/15 06:27:13;;;;;;;0.98;0.60;;;;;;;16.34;83.82;97719.97;7385284;19;20018;-74
2022/10/15 06:29:40;;;;;;;0.68;0.40;;;;;;;16.39;83.84;97730.84;7386522;19;20029;-74
2022/10/15 06:32:10;;;;;;;3.40;0.50;;;;;;;16.43;83.88;97743.56;7382533;19;20014;-73
2022/10/15 06:34:44;;;;;;;3.13;0.43;;;;;;;16.44;83.77;97747.06;7385555;19;20026;-74
2022/10/15 06:37:11;;;;;;;0.88;0.60;;;;;;;16.45;83.68;97744.16;7385623;19;20023;-74
2022/10/15 06:39:39;;;;;;;2.55;0.80;;;;;;;16.47;83.75;97746.63;7388387;19;21075;-74
2022/10/15 06:42:06;;;;;;;3.35;0.77;;;;;;;16.50;83.76;97748.88;7385495;19;20014;-74
2022/10/15 06:44:46;;;;;;;2.20;0.57;;;;;;;16.49;83.72;97759.78;7386007;19;20495;-74
2022/10/15 06:47:15;;;;;;;0.80;0.45;;;;;;;16.52;83.46;97767.38;7382453;19;20021;-74
2022/10/15 06:49:46;;;;;;;1.60;0.60;;;;;;;16.48;83.32;97772.28;7382781;19;20032;-74
2022/10/15 06:52:13;;;;;;;8.07;0.90;;;;;;;16.38;83.57;97772.75;7386062;19;20015;-74
2022/10/15 06:54:40;;;;;;;5.25;0.85;;;;;;;16.39;83.49;97781.56;7385219;19;20039;-74
2022/10/15 06:57:13;;;;;;;1.25;0.52;;;;;;;16.42;83.66;97779.28;7385713;19;20019;-73
2022/10/15 06:59:39;;;;;;;2.08;0.80;;;;;;;16.48;83.62;97784.81;7386995;19;20038;-74
2022/10/15 07:02:09;;;;;;;3.67;0.80;;;;;;;16.41;83.66;97785.66;7387191;19;20021;-74
2022/10/15 07:04:35;;;;;;;1.30;0.75;;;;;;;16.48;83.53;97788.31;7382014;19;20010;-74
2022/10/15 07:07:02;;;;;;;10.77;0.98;;;;;;;16.46;83.44;97793.06;7377441;19;20469;-74
2022/10/15 07:09:29;;;;;;;6.45;1.38;;;;;;;16.50;83.40;97796.13;7389351;19;20063;-74
2022/10/15 07:12:05;;;;;;;2.92;0.75;;;;;;;16.52;83.54;97800.22;7394571;19;20051;-75
2022/10/15 07:14:32;;;;;;;0.77;0.52;;;;;;;16.56;83.48;97806.81;7391359;19;20351;-75
2022/10/15 07:17:02;;;;;;;5.07;0.68;;;;;;;16.55;83.21;97805.16;7392376;19;20379;-74
2022/10/15 07:19:29;;;;;;;3.60;0.77;;;;;;;16.59;83.35;97808.25;7394006;19;20015;-75
2022/10/15 07:21:56;;;;;;;2.30;0.70;;;;;;;16.65;83.26;97813.56;7390823;19;20022;-75
2022/10/15 07:24:22;;;;;;;1.65;0.57;;;;;;;16.66;83.00;97809.84;7391040;19;20019;-74
2022/10/15 07:26:49;;;;;;;3.20;0.52;;;;;;;16.68;82.95;97813.13;7394291;19;20010;-75
2022/10/15 07:29:16;;;;;;;0.85;0.65;;;;;;;16.72;83.03;97820.72;7393000;19;20074;-74
2022/10/15 07:31:45;;;;;;;1.50;0.60;;;;;;;16.73;83.11;97820.53;7393916;19;20052;-74
2022/10/15 07:34:13;;;;;;;1.77;0.60;;;;;;;16.82;83.02;97815.81;7394310;19;20595;-75
2022/10/15 07:36:39;;;;;;;2.42;0.80;;;;;;;16.82;83.09;97821.16;7393131;19;20019;-74
2022/10/15 07:39:08;;;;;;;2.05;0.70;;;;;;;16.86;82.94;97817.88;7387416;19;20351;-74
2022/10/15 07:41:35;;;;;;;0.80;0.75;;;;;;;16.95;83.19;97817.63;7391887;19;20023;-74
2022/10/15 07:44:02;;;;;;;1.20;0.75;;;;;;;17.04;82.95;97827.06;7391628;19;20014;-74
2022/10/15 07:46:29;;;;;;;3.60;0.70;;;;;;;17.09;82.92;97830.75;7396006;19;20031;-74
2022/10/15 07:48:55;;;;;;;3.47;0.90;;;;;;;17.18;82.71;97838.53;7387898;19;20048;-74
2022/10/15 07:51:27;;;;;;;1.52;0.70;;;;;;;17.24;82.56;97832.34;7393683;19;20906;-74
2022/10/15 07:53:54;;;;;;;5.55;0.90;;;;;;;17.22;82.24;97837.06;7392351;19;20080;-74
2022/10/15 07:56:21;;;;;;;2.22;0.80;;;;;;;17.27;82.21;97842.59;7390170;19;20395;-74
2022/10/15 07:58:50;;;;;;;3.05;0.73;;;;;;;17.17;82.14;97847.56;7390766;19;20027;-75
2022/10/15 08:01:19;;;;;;;3.50;1.20;;;;;;;17.12;81.99;97845.56;7394230;19;20370;-74
2022/10/15 08:03:46;;;;;;;4.15;0.98;;;;;;;17.05;81.79;97847.41;7388928;19;20805;-74
2022/10/15 08:06:13;;;;;;;1.10;0.88;;;;;;;17.00;81.82;97848.03;7394156;19;20022;-74
2022/10/15 08:08:40;;;;;;;4.82;1.00;;;;;;;16.85;82.17;97850.13;7388632;19;20018;-74
2022/10/15 08:11:09;;;;;;;3.30;0.60;;;;;;;16.73;82.32;97851.78;7387013;19;20016;-75
2022/10/15 08:13:39;;;;;;;6.20;0.70;;;;;;;16.70;82.39;97855.69;7384383;19;20018;-75
2022/10/15 08:16:11;;;;;;;3.65;0.75;;;;;;;16.64;82.61;97853.81;7388707;19;20022;-74
2022/10/15 08:18:38;;;;;;;5.03;0.80;;;;;;;16.60;82.70;97866.78;7388816;19;20015;-75
2022/10/15 08:21:06;;;;;;;3.97;1.20;;;;;;;16.55;82.74;97866.56;7386381;19;20022;-74
2022/10/15 08:23:34;;;;;;;5.43;0.95;;;;;;;16.53;82.79;97863.28;7388449;19;20018;-74
2022/10/15 08:26:01;;;;;;;3.63;0.95;;;;;;;16.41;83.02;97855.09;7388895;19;20018;-74
2022/10/15 08:28:28;;;;;;;5.10;1.35;;;;;;;16.40;83.04;97850.78;7381479;19;20325;-74
2022/10/15 08:30:58;;;;;;;3.50;1.27;;;;;;;16.48;83.06;97859.59;7379432;19;20074;-74
2022/10/15 08:33:33;;;;;;;1.38;0.82;;;;;;;16.47;83.04;97856.09;7387228;19;20042;-75
2022/10/15 08:36:00;;;;;;;3.33;0.80;;;;;;;16.59;83.07;97856.31;7388451;19;20010;-74
2022/10/15 08:38:29;;;;;;;5.40;1.13;;;;;;;16.66;83.15;97857.09;7390397;19;20014;-74
2022/10/15 08:40:57;;;;;;;2.20;0.80;;;;;;;16.57;83.21;97855.69;7384402;19;20363;-74
2022/10/15 08:43:25;;;;;;;8.60;0.85;;;;;;;16.53;83.30;97859.78;7385864;19;20617;-75
2022/10/15 08:45:55;;;;;;;1.55;0.85;;;;;;;16.59;83.50;97862.47;7386148;19;20022;-74
2022/10/15 08:48:29;;;;;;;2.28;1.05;;;;;;;16.81;83.09;97860.41;7382676;19;20010;-74
2022/10/15 08:51:12;;;;;;;5.40;0.75;;;;;;;16.94;82.83;97862.25;7385988;19;20022;-74
2022/10/15 08:53:52;;;;;;;5.63;1.00;;;;;;;16.84;82.66;97864.53;7387104;19;20014;-74
2022/10/15 08:56:32;;;;;;;2.55;0.80;;;;;;;16.86;82.64;97873.97;7384664;19;20010;-74
2022/10/15 08:59:24;;;;;;;1.23;0.70;;;;;;;16.86;82.38;97873.16;7387612;19;20029;-75
2022/10/15 09:02:03;;;;;;;2.97;1.13;;;;;;;16.87;82.48;97869.44;7245448;19;2743817;-75
2022/10/15 09:04:49;;;;;;;0.75;0.75;;;;;;;16.83;82.12;97862.88;7383969;19;20015;-74
2022/10/15 09:07:45;;;;;;;1.20;1.10;;;;;;;16.85;82.33;97866.16;7374551;19;20048;-74
2022/10/15 09:10:39;;;;;;;6.80;1.70;;;;;;;16.83;82.40;97869.06;7372429;19;20473;-74
2022/10/15 09:13:39;;;;;;;0.80;0.80;;;;;;;16.84;82.55;97869.88;7378129;19;20703;-75
2022/10/15 09:16:18;;;;;;;1.17;0.85;;;;;;;16.92;82.69;97868.81;7372975;19;20046;-75
2022/10/15 09:18:48;;;;;;;1.00;0.90;;;;;;;16.96;82.49;97878.09;7365134;19;20030;-74
2022/10/15 09:21:15;;;;;;;3.13;0.80;;;;;;;16.99;82.60;97878.47;7372793;19;20047;-75
2022/10/15 09:23:43;;;;;;;1.20;1.05;;;;;;;16.95;82.56;97877.22;7384752;19;20023;-75
2022/10/15 09:26:28;;;;;;;0.85;0.85;;;;;;;17.02;82.54;97877.22;7381918;19;20553;-75
2022/10/15 09:29:15;;;;;;;3.92;0.95;;;;;;;17.04;82.47;97875.19;7379642;19;20081;-75
2022/10/15 09:31:52;;;;;;;2.92;1.10;;;;;;;16.98;82.50;97876.00;7381060;19;20794;-75
2022/10/15 09:34:34;;;;;;;1.42;0.93;;;;;;;17.02;82.53;97885.25;7377434;19;20105;-74
2022/10/15 09:37:19;;;;;;;1.27;0.85;;;;;;;17.01;82.87;97887.09;7376135;19;20014;-74
2022/10/15 09:40:13;;;;;;;2.50;0.95;;;;;;;17.09;82.97;97897.56;7366549;19;21326;-74
2022/10/15 09:42:41;;;;;;;1.98;0.90;;;;;;;17.23;82.73;97886.84;7368233;19;20663;-74
2022/10/15 09:45:13;;;;;;;2.20;1.10;;;;;;;17.31;82.49;97889.28;7364965;19;20010;-75
2022/10/15 09:47:42;;;;;;;3.78;1.05;;;;;;;17.34;82.38;97886.19;7373905;19;20027;-74
2022/10/15 09:50:11;;;;;;;4.88;1.20;;;;;;;17.40;82.24;97888.00;7376560;19;20039;-75
2022/10/15 09:53:18;;;;;;;8.98;1.05;;;;;;;17.33;82.36;97901.41;7367082;19;20019;-74
2022/10/15 09:56:00;;;;;;;1.10;0.80;;;;;;;17.50;82.37;97891.06;7376695;19;20025;-75
2022/10/15 09:58:54;;;;;;;7.20;0.85;;;;;;;17.61;82.29;97896.78;7381994;19;20269;-74
2022/10/15 10:01:29;;;;;;;5.30;1.08;;;;;;;17.69;82.04;97900.06;7379430;19;20014;-74
2022/10/15 10:04:17;;;;;;;0.70;0.60;;;;;;;17.75;81.77;97895.69;7370117;19;20026;-74
2022/10/15 10:06:59;;;;;;;0.75;0.75;;;;;;;17.75;81.76;97906.41;7373615;19;20504;-75
2022/10/15 10:09:31;;;;;;;1.45;1.27;;;;;;;17.76;81.83;97908.84;7377565;19;20466;-74
2022/10/15 10:12:05;;;;;;;2.30;1.20;;;;;;;17.83;81.91;97895.47;7378269;19;20375;-74
2022/10/15 10:14:35;;;;;;;2.67;1.00;;;;;;;17.86;82.01;97899.59;7380576;19;20035;-74
2022/10/15 10:17:03;;;;;;;1.65;0.52;;;;;;;18.04;82.25;97907.72;7378922;19;20071;-75
2022/10/15 10:19:30;;;;;;;4.00;1.05;;;;;;;18.29;82.01;97910.44;7382689;19;20010;-74
2022/10/15 10:22:18;;;;;;;2.83;1.25;;;;;;;18.48;81.54;97910.50;7384398;19;20105;-74
2022/10/15 10:24:46;;;;;;;2.15;1.38;;;;;;;18.60;81.46;97906.91;7381036;19;20042;-74
2022/10/15 10:27:19;;;;;;;4.43;0.90;;;;;;;18.76;81.48;97904.75;7376132;19;20680;-74
2022/10/15 10:29:51;;;;;;;4.00;1.20;;;;;;;18.93;80.71;97900.47;7384026;19;20018;-74
2022/10/15 10:32:25;;;;;;;3.45;1.00;;;;;;;18.91;80.34;97901.75;7379423;19;20018;-74
2022/10/15 10:34:52;;;;;;;1.10;0.68;;;;;;;18.82;79.86;97902.00;7378436;19;20029;-74
2022/10/15 10:37:20;;;;;;;0.40;0.35;;;;;;;18.70;79.39;97898.38;7374982;19;20019;-74
2022/10/15 10:39:55;;;;;;;3.03;0.80;;;;;;;18.72;79.69;97899.00;7379502;19;20010;-74
2022/10/15 10:42:36;;;;;;;1.20;0.52;;;;;;;19.04;79.50;97901.63;7379814;19;20011;-74
2022/10/15 10:45:21;;;;;;;0.68;0.50;;;;;;;19.04;78.82;97898.94;7377651;19;20077;-74
2022/10/15 10:47:48;;;;;;;3.67;0.50;;;;;;;18.94;78.96;97903.97;7382429;19;20674;-74
2022/10/15 10:50:31;;;;;;;2.70;0.30;;;;;;;18.96;78.65;97907.25;7378273;19;20018;-74
2022/10/15 10:53:11;;;;;;;0.75;0.40;;;;;;;19.25;78.72;97911.09;7381413;19;20015;-74
2022/10/15 10:55:39;;;;;;;3.15;0.52;;;;;;;19.27;77.25;97908.97;7384800;19;20395;-74
2022/10/15 10:58:14;;;;;;;3.70;0.60;;;;;;;19.34;77.52;97909.75;7383071;19;20100;-74
2022/10/15 11:00:46;;;;;;;0.50;0.50;;;;;;;19.41;77.30;97901.63;7377303;19;20006;-74
2022/10/15 11:03:26;;;;;;;1.60;0.40;;;;;;;19.55;76.54;97908.47;7376891;19;20014;-74
2022/10/15 11:06:31;;;;;;;0.43;0.30;;;;;;;19.65;76.09;97906.09;7377967;19;20018;-74
2022/10/15 11:09:19;;;;;;;1.55;0.57;;;;;;;19.65;74.34;97903.41;7368556;19;20038;-74
2022/10/15 11:12:27;;;;;;;1.60;0.50;;;;;;;19.67;73.87;97900.53;7367373;19;20041;-75
2022/10/15 11:15:00;;;;;;;0.40;0.40;;;;;;;19.63;73.26;97900.13;7372497;19;20011;-74
2022/10/15 11:17:33;;;;;;;0.52;0.43;;;;;;;19.34;74.45;97904.38;7378301;19;20047;-74
2022/10/15 11:20:10;;;;;;;1.30;0.57;;;;;;;19.04;75.08;97896.25;7377092;19;20025;-74
2022/10/15 11:23:05;;;;;;;1.35;0.50;;;;;;;19.02;75.49;97898.31;7375353;19;20018;-74
2022/10/15 11:26:01;;;;;;;0.50;0.45;;;;;;;18.85;74.16;97892.69;7372600;19;20011;-74
2022/10/15 11:29:01;;;;;;;1.95;0.55;;;;;;;19.05;75.50;97897.88;7372438;19;20381;-74
2022/10/15 11:32:10;;;;;;;4.57;0.70;;;;;;;19.06;75.41;97892.31;7375473;19;20038;-74
2022/10/15 11:34:59;;;;;;;1.98;0.90;;;;;;;19.07;75.03;97893.13;7366977;19;20023;-74
2022/10/15 11:38:03;;;;;;;2.13;1.42;;;;;;;19.49;75.65;97894.09;7372722;19;20612;-74
2022/10/15 11:40:38;;;;;;;1.00;0.70;;;;;;;19.81;73.21;97895.81;7376273;19;20071;-75
2022/10/15 11:43:37;;;;;;;0.85;0.60;;;;;;;19.97;70.93;97886.31;7372918;19;20026;-75
2022/10/15 11:46:24;;;;;;;1.20;0.60;;;;;;;19.87;71.60;97889.53;7374321;19;20023;-74
2022/10/15 11:48:50;;;;;;;2.28;0.70;;;;;;;19.80;71.64;97886.09;7368594;19;20059;-74
2022/10/15 11:51:26;;;;;;;1.17;0.60;;;;;;;19.81;71.99;97885.06;7378983;19;20010;-75
2022/10/15 11:54:16;;;;;;;3.17;0.68;;;;;;;19.64;73.04;97879.47;7381135;19;20046;-75
2022/10/15 11:56:46;;;;;;;4.40;0.88;;;;;;;19.54;72.25;97871.97;7390256;19;20038;-75
2022/10/15 11:59:30;;;;;;;2.20;1.00;;;;;;;19.58;73.20;97865.09;7389763;19;20750;-75